PWSweather.com
Personal Weather Stations
Station Observations
NAGEO265NE
Bedzin GrodziecPL 42-506

Bedzin GrodziecPL 42-506

Lat: 50.347, Lon: 19.079

Elevation: 948

Station Type: WH1080

http://www.meteo-grodziec.pl/

High Low Average
Temperature 24.8°F-4.0°C 14.2°F-9.9°C 19.7°F-6.8°C
Dew Point 15.1°F-9.4°C 7.7°F-13.5°C 11.0°F-11.7°C
Winds 14.0 mph 22.5 kmh 5.0 mph 8.0 kmh 10.0 mph ENE16.1 kmh ENE
Wind Gusts 27.0 mph43.5 kmh 12.0 mph19.3 kmh 20.0 mph32.2 kmh
Humidity 83% 59% 69%
Pressure 30.01 in1016.3 mb 29.92 in1013.2 mb -
Precipitation 0.00 in0.0 mm - -
Hour Temp Dew Point Humidity Winds Wind Gusts Pressure Precip Precip Rate Daily Precip Total
12:00 AM 18.1°F-7.7°C 12.7°F-10.7°C 79% 11.0 mph ENE17.7 kmh ENE 21.0 mph33.8 kmh 29.94 in1013.9 mb 0.00 in0.0 mm 0.00 in0.0 mm 0.00 in0.0 mm
12:05 AM 18.1°F-7.7°C 12.7°F-10.7°C 79% 11.0 mph ENE17.7 kmh ENE 21.0 mph33.8 kmh 29.94 in1013.9 mb 0.00 in0.0 mm 0.00 in0.0 mm 0.00 in0.0 mm
12:10 AM 18.1°F-7.7°C 12.7°F-10.7°C 79% 9.0 mph ENE14.5 kmh ENE 20.0 mph32.2 kmh 29.94 in1013.9 mb 0.00 in0.0 mm 0.00 in0.0 mm 0.00 in0.0 mm
12:15 AM 18.1°F-7.7°C 12.7°F-10.7°C 79% 9.0 mph ENE14.5 kmh ENE 20.0 mph32.2 kmh 29.94 in1013.9 mb 0.00 in0.0 mm 0.00 in0.0 mm 0.00 in0.0 mm
12:20 AM 18.1°F-7.7°C 12.7°F-10.7°C 79% 10.0 mph ENE16.1 kmh ENE 20.0 mph32.2 kmh 29.94 in1013.9 mb 0.00 in0.0 mm 0.00 in0.0 mm 0.00 in0.0 mm
12:25 AM 18.0°F-7.8°C 12.4°F-10.9°C 78% 9.0 mph ENE14.5 kmh ENE 20.0 mph32.2 kmh 29.94 in1013.9 mb 0.00 in0.0 mm 0.00 in0.0 mm 0.00 in0.0 mm
12:30 AM 18.0°F-7.8°C 12.4°F-10.9°C 78% 9.0 mph ENE14.5 kmh ENE 18.0 mph29.0 kmh 29.94 in1013.9 mb 0.00 in0.0 mm 0.00 in0.0 mm 0.00 in0.0 mm
12:35 AM 18.0°F-7.8°C 12.2°F-11.0°C 78% 9.0 mph ENE14.5 kmh ENE 18.0 mph29.0 kmh 29.94 in1013.9 mb 0.00 in0.0 mm 0.00 in0.0 mm 0.00 in0.0 mm
12:40 AM 18.0°F-7.8°C 12.2°F-11.0°C 78% 9.0 mph ENE14.5 kmh ENE 21.0 mph33.8 kmh 29.94 in1013.9 mb 0.00 in0.0 mm 0.00 in0.0 mm 0.00 in0.0 mm
12:45 AM 17.8°F-7.9°C 11.8°F-11.2°C 77% 10.0 mph ENE16.1 kmh ENE 21.0 mph33.8 kmh 29.94 in1013.9 mb 0.00 in0.0 mm 0.00 in0.0 mm 0.00 in0.0 mm
12:50 AM 17.8°F-7.9°C 11.8°F-11.2°C 77% 10.0 mph ENE16.1 kmh ENE 19.0 mph30.6 kmh 29.94 in1013.9 mb 0.00 in0.0 mm 0.00 in0.0 mm 0.00 in0.0 mm
12:55 AM 17.8°F-7.9°C 11.8°F-11.2°C 77% 10.0 mph ENE16.1 kmh ENE 17.0 mph27.4 kmh 29.94 in1013.9 mb 0.00 in0.0 mm 0.00 in0.0 mm 0.00 in0.0 mm
01:00 AM 17.8°F-7.9°C 11.7°F-11.3°C 77% 10.0 mph ENE16.1 kmh ENE 19.0 mph30.6 kmh 29.94 in1013.9 mb 0.00 in0.0 mm 0.00 in0.0 mm 0.00 in0.0 mm
01:05 AM 17.6°F-8.0°C 11.3°F-11.5°C 76% 11.0 mph ENE17.7 kmh ENE 21.0 mph33.8 kmh 29.94 in1013.9 mb 0.00 in0.0 mm 0.00 in0.0 mm 0.00 in0.0 mm
01:10 AM 17.4°F-8.1°C 11.3°F-11.5°C 76% 12.0 mph ENE19.3 kmh ENE 21.0 mph33.8 kmh 29.94 in1013.9 mb 0.00 in0.0 mm 0.00 in0.0 mm 0.00 in0.0 mm
01:15 AM 17.4°F-8.1°C 11.3°F-11.5°C 76% 11.0 mph ENE17.7 kmh ENE 21.0 mph33.8 kmh 29.94 in1013.9 mb 0.00 in0.0 mm 0.00 in0.0 mm 0.00 in0.0 mm
01:20 AM 17.4°F-8.1°C 11.1°F-11.6°C 76% 10.0 mph ENE16.1 kmh ENE 22.0 mph35.4 kmh 29.94 in1013.9 mb 0.00 in0.0 mm 0.00 in0.0 mm 0.00 in0.0 mm
01:25 AM 17.4°F-8.1°C 11.1°F-11.6°C 76% 10.0 mph ENE16.1 kmh ENE 22.0 mph35.4 kmh 29.94 in1013.9 mb 0.00 in0.0 mm 0.00 in0.0 mm 0.00 in0.0 mm
01:30 AM 17.2°F-8.2°C 10.8°F-11.8°C 75% 10.0 mph ENE16.1 kmh ENE 19.0 mph30.6 kmh 29.94 in1013.9 mb 0.00 in0.0 mm 0.00 in0.0 mm 0.00 in0.0 mm
01:35 AM 17.2°F-8.2°C 10.6°F-11.9°C 75% 10.0 mph ENE16.1 kmh ENE 19.0 mph30.6 kmh 29.94 in1013.9 mb 0.00 in0.0 mm 0.00 in0.0 mm 0.00 in0.0 mm
01:40 AM 17.1°F-8.3°C 10.6°F-11.9°C 75% 10.0 mph ENE16.1 kmh ENE 19.0 mph30.6 kmh 29.94 in1013.9 mb 0.00 in0.0 mm 0.00 in0.0 mm 0.00 in0.0 mm
01:45 AM 17.1°F-8.3°C 10.4°F-12.0°C 75% 10.0 mph ENE16.1 kmh ENE 19.0 mph30.6 kmh 29.94 in1013.9 mb 0.00 in0.0 mm 0.00 in0.0 mm 0.00 in0.0 mm
01:50 AM 16.9°F-8.4°C 10.4°F-12.0°C 75% 9.0 mph ENE14.5 kmh ENE 19.0 mph30.6 kmh 29.94 in1013.9 mb 0.00 in0.0 mm 0.00 in0.0 mm 0.00 in0.0 mm
01:55 AM 16.7°F-8.5°C 10.2°F-12.1°C 75% 9.0 mph ENE14.5 kmh ENE 20.0 mph32.2 kmh 29.93 in1013.5 mb 0.00 in0.0 mm 0.00 in0.0 mm 0.00 in0.0 mm
02:00 AM 16.5°F-8.6°C 10.0°F-12.2°C 75% 9.0 mph ENE14.5 kmh ENE 20.0 mph32.2 kmh 29.94 in1013.9 mb 0.00 in0.0 mm 0.00 in0.0 mm 0.00 in0.0 mm
02:05 AM 16.3°F-8.7°C 9.9°F-12.3°C 75% 9.0 mph ENE14.5 kmh ENE 17.0 mph27.4 kmh 29.94 in1013.9 mb 0.00 in0.0 mm 0.00 in0.0 mm 0.00 in0.0 mm
02:10 AM 16.3°F-8.7°C 9.7°F-12.4°C 75% 9.0 mph ENE14.5 kmh ENE 17.0 mph27.4 kmh 29.94 in1013.9 mb 0.00 in0.0 mm 0.00 in0.0 mm 0.00 in0.0 mm
02:15 AM 16.2°F-8.8°C 9.7°F-12.4°C 75% 9.0 mph ENE14.5 kmh ENE 19.0 mph30.6 kmh 29.93 in1013.5 mb 0.00 in0.0 mm 0.00 in0.0 mm 0.00 in0.0 mm
02:20 AM 16.2°F-8.8°C 9.3°F-12.6°C 74% 9.0 mph ENE14.5 kmh ENE 20.0 mph32.2 kmh 29.94 in1013.9 mb 0.00 in0.0 mm 0.00 in0.0 mm 0.00 in0.0 mm
02:25 AM 16.2°F-8.8°C 9.3°F-12.6°C 74% 10.0 mph ENE16.1 kmh ENE 20.0 mph32.2 kmh 29.93 in1013.5 mb 0.00 in0.0 mm 0.00 in0.0 mm 0.00 in0.0 mm
02:30 AM 16.0°F-8.9°C 9.1°F-12.7°C 74% 10.0 mph ENE16.1 kmh ENE 20.0 mph32.2 kmh 29.93 in1013.5 mb 0.00 in0.0 mm 0.00 in0.0 mm 0.00 in0.0 mm
02:35 AM 16.0°F-8.9°C 9.1°F-12.7°C 74% 9.0 mph ENE14.5 kmh ENE 18.0 mph29.0 kmh 29.93 in1013.5 mb 0.00 in0.0 mm 0.00 in0.0 mm 0.00 in0.0 mm
02:40 AM 15.8°F-9.0°C 9.0°F-12.8°C 74% 9.0 mph ENE14.5 kmh ENE 18.0 mph29.0 kmh 29.93 in1013.5 mb 0.00 in0.0 mm 0.00 in0.0 mm 0.00 in0.0 mm
02:45 AM 15.8°F-9.0°C 9.0°F-12.8°C 74% 10.0 mph ENE16.1 kmh ENE 21.0 mph33.8 kmh 29.93 in1013.5 mb 0.00 in0.0 mm 0.00 in0.0 mm 0.00 in0.0 mm
02:50 AM 15.6°F-9.1°C 8.8°F-12.9°C 74% 9.0 mph ENE14.5 kmh ENE 21.0 mph33.8 kmh 29.93 in1013.5 mb 0.00 in0.0 mm 0.00 in0.0 mm 0.00 in0.0 mm
02:55 AM 15.6°F-9.1°C 8.8°F-12.9°C 74% 9.0 mph ENE14.5 kmh ENE 18.0 mph29.0 kmh 29.92 in1013.2 mb 0.00 in0.0 mm 0.00 in0.0 mm 0.00 in0.0 mm
03:00 AM 15.4°F-9.2°C 8.6°F-13.0°C 74% 9.0 mph ENE14.5 kmh ENE 18.0 mph29.0 kmh 29.93 in1013.5 mb 0.00 in0.0 mm 0.00 in0.0 mm 0.00 in0.0 mm
03:05 AM 15.4°F-9.2°C 8.6°F-13.0°C 74% 9.0 mph ENE14.5 kmh ENE 17.0 mph27.4 kmh 29.93 in1013.5 mb 0.00 in0.0 mm 0.00 in0.0 mm 0.00 in0.0 mm
03:10 AM 15.4°F-9.2°C 8.6°F-13.0°C 74% 10.0 mph ENE16.1 kmh ENE 22.0 mph35.4 kmh 29.93 in1013.5 mb 0.00 in0.0 mm 0.00 in0.0 mm 0.00 in0.0 mm
03:15 AM 15.4°F-9.2°C 8.6°F-13.0°C 74% 10.0 mph ENE16.1 kmh ENE 22.0 mph35.4 kmh 29.93 in1013.5 mb 0.00 in0.0 mm 0.00 in0.0 mm 0.00 in0.0 mm
03:20 AM 15.3°F-9.3°C 8.4°F-13.1°C 74% 9.0 mph ENE14.5 kmh ENE 18.0 mph29.0 kmh 29.93 in1013.5 mb 0.00 in0.0 mm 0.00 in0.0 mm 0.00 in0.0 mm
03:25 AM 15.3°F-9.3°C 8.4°F-13.1°C 74% 9.0 mph ENE14.5 kmh ENE 19.0 mph30.6 kmh 29.93 in1013.5 mb 0.00 in0.0 mm 0.00 in0.0 mm 0.00 in0.0 mm
03:30 AM 15.1°F-9.4°C 8.2°F-13.2°C 74% 9.0 mph ENE14.5 kmh ENE 19.0 mph30.6 kmh 29.93 in1013.5 mb 0.00 in0.0 mm 0.00 in0.0 mm 0.00 in0.0 mm
03:35 AM 15.1°F-9.4°C 8.2°F-13.2°C 74% 10.0 mph ENE16.1 kmh ENE 17.0 mph27.4 kmh 29.93 in1013.5 mb 0.00 in0.0 mm 0.00 in0.0 mm 0.00 in0.0 mm
03:40 AM 15.1°F-9.4°C 8.2°F-13.2°C 74% 9.0 mph ENE14.5 kmh ENE 17.0 mph27.4 kmh 29.93 in1013.5 mb 0.00 in0.0 mm 0.00 in0.0 mm 0.00 in0.0 mm
03:45 AM 15.1°F-9.4°C 8.2°F-13.2°C 74% 9.0 mph ENE14.5 kmh ENE 22.0 mph35.4 kmh 29.93 in1013.5 mb 0.00 in0.0 mm 0.00 in0.0 mm 0.00 in0.0 mm
03:50 AM 14.9°F-9.5°C 8.1°F-13.3°C 74% 11.0 mph ENE17.7 kmh ENE 22.0 mph35.4 kmh 29.93 in1013.5 mb 0.00 in0.0 mm 0.00 in0.0 mm 0.00 in0.0 mm
03:55 AM 14.9°F-9.5°C 8.1°F-13.3°C 74% 10.0 mph ENE16.1 kmh ENE 20.0 mph32.2 kmh 29.94 in1013.9 mb 0.00 in0.0 mm 0.00 in0.0 mm 0.00 in0.0 mm
04:00 AM 14.9°F-9.5°C 8.1°F-13.3°C 74% 9.0 mph ENE14.5 kmh ENE 18.0 mph29.0 kmh 29.93 in1013.5 mb 0.00 in0.0 mm 0.00 in0.0 mm 0.00 in0.0 mm
04:05 AM 14.7°F-9.6°C 8.2°F-13.2°C 75% 9.0 mph ENE14.5 kmh ENE 16.0 mph25.7 kmh 29.93 in1013.5 mb 0.00 in0.0 mm 0.00 in0.0 mm 0.00 in0.0 mm
04:10 AM 14.7°F-9.6°C 8.2°F-13.2°C 75% 10.0 mph ENE16.1 kmh ENE 16.0 mph25.7 kmh 29.94 in1013.9 mb 0.00 in0.0 mm 0.00 in0.0 mm 0.00 in0.0 mm
04:15 AM 14.7°F-9.6°C 8.2°F-13.2°C 75% 8.0 mph ENE12.9 kmh ENE 16.0 mph25.7 kmh 29.94 in1013.9 mb 0.00 in0.0 mm 0.00 in0.0 mm 0.00 in0.0 mm
04:20 AM 14.7°F-9.6°C 8.2°F-13.2°C 75% 8.0 mph ENE12.9 kmh ENE 15.0 mph24.1 kmh 29.93 in1013.5 mb 0.00 in0.0 mm 0.00 in0.0 mm 0.00 in0.0 mm
04:25 AM 14.7°F-9.6°C 8.2°F-13.2°C 75% 8.0 mph ENE12.9 kmh ENE 18.0 mph29.0 kmh 29.94 in1013.9 mb 0.00 in0.0 mm 0.00 in0.0 mm 0.00 in0.0 mm
04:30 AM 14.7°F-9.6°C 8.2°F-13.2°C 75% 8.0 mph ENE12.9 kmh ENE 19.0 mph30.6 kmh 29.93 in1013.5 mb 0.00 in0.0 mm 0.00 in0.0 mm 0.00 in0.0 mm
04:35 AM 14.7°F-9.6°C 8.2°F-13.2°C 75% 9.0 mph ENE14.5 kmh ENE 20.0 mph32.2 kmh 29.94 in1013.9 mb 0.00 in0.0 mm 0.00 in0.0 mm 0.00 in0.0 mm
04:40 AM 14.7°F-9.6°C 8.2°F-13.2°C 75% 10.0 mph ENE16.1 kmh ENE 20.0 mph32.2 kmh 29.94 in1013.9 mb 0.00 in0.0 mm 0.00 in0.0 mm 0.00 in0.0 mm
04:45 AM 14.7°F-9.6°C 8.2°F-13.2°C 75% 10.0 mph ENE16.1 kmh ENE 18.0 mph29.0 kmh 29.93 in1013.5 mb 0.00 in0.0 mm 0.00 in0.0 mm 0.00 in0.0 mm
04:50 AM 14.7°F-9.6°C 8.2°F-13.2°C 75% 11.0 mph ENE17.7 kmh ENE 20.0 mph32.2 kmh 29.93 in1013.5 mb 0.00 in0.0 mm 0.00 in0.0 mm 0.00 in0.0 mm
04:55 AM 14.5°F-9.7°C 8.1°F-13.3°C 75% 11.0 mph ENE17.7 kmh ENE 20.0 mph32.2 kmh 29.94 in1013.9 mb 0.00 in0.0 mm 0.00 in0.0 mm 0.00 in0.0 mm
05:00 AM 14.5°F-9.7°C 8.1°F-13.3°C 75% 11.0 mph ENE17.7 kmh ENE 20.0 mph32.2 kmh 29.94 in1013.9 mb 0.00 in0.0 mm 0.00 in0.0 mm 0.00 in0.0 mm
05:05 AM 14.5°F-9.7°C 8.1°F-13.3°C 75% 10.0 mph ENE16.1 kmh ENE 18.0 mph29.0 kmh 29.93 in1013.5 mb 0.00 in0.0 mm 0.00 in0.0 mm 0.00 in0.0 mm
05:10 AM 14.5°F-9.7°C 8.1°F-13.3°C 75% 8.0 mph ENE12.9 kmh ENE 18.0 mph29.0 kmh 29.93 in1013.5 mb 0.00 in0.0 mm 0.00 in0.0 mm 0.00 in0.0 mm
05:15 AM 14.5°F-9.7°C 8.1°F-13.3°C 75% 9.0 mph ENE14.5 kmh ENE 19.0 mph30.6 kmh 29.93 in1013.5 mb 0.00 in0.0 mm 0.00 in0.0 mm 0.00 in0.0 mm
05:20 AM 14.5°F-9.7°C 8.1°F-13.3°C 75% 9.0 mph ENE14.5 kmh ENE 19.0 mph30.6 kmh 29.93 in1013.5 mb 0.00 in0.0 mm 0.00 in0.0 mm 0.00 in0.0 mm
05:25 AM 14.5°F-9.7°C 8.1°F-13.3°C 75% 8.0 mph ENE12.9 kmh ENE 16.0 mph25.7 kmh 29.93 in1013.5 mb 0.00 in0.0 mm 0.00 in0.0 mm 0.00 in0.0 mm
05:30 AM 14.5°F-9.7°C 8.1°F-13.3°C 75% 8.0 mph ENE12.9 kmh ENE 21.0 mph33.8 kmh 29.93 in1013.5 mb 0.00 in0.0 mm 0.00 in0.0 mm 0.00 in0.0 mm
05:35 AM 14.5°F-9.7°C 8.1°F-13.3°C 75% 9.0 mph ENE14.5 kmh ENE 21.0 mph33.8 kmh 29.93 in1013.5 mb 0.00 in0.0 mm 0.00 in0.0 mm 0.00 in0.0 mm
05:40 AM 14.4°F-9.8°C 7.9°F-13.4°C 75% 9.0 mph ENE14.5 kmh ENE 19.0 mph30.6 kmh 29.94 in1013.9 mb 0.00 in0.0 mm 0.00 in0.0 mm 0.00 in0.0 mm
05:45 AM 14.4°F-9.8°C 7.9°F-13.4°C 75% 9.0 mph ENE14.5 kmh ENE 18.0 mph29.0 kmh 29.94 in1013.9 mb 0.00 in0.0 mm 0.00 in0.0 mm 0.00 in0.0 mm
05:50 AM 14.4°F-9.8°C 7.9°F-13.4°C 75% 8.0 mph ENE12.9 kmh ENE 18.0 mph29.0 kmh 29.94 in1013.9 mb 0.00 in0.0 mm 0.00 in0.0 mm 0.00 in0.0 mm
05:55 AM 14.4°F-9.8°C 7.9°F-13.4°C 75% 9.0 mph ENE14.5 kmh ENE 20.0 mph32.2 kmh 29.93 in1013.5 mb 0.00 in0.0 mm 0.00 in0.0 mm 0.00 in0.0 mm
06:00 AM 14.4°F-9.8°C 7.9°F-13.4°C 75% 9.0 mph ENE14.5 kmh ENE 20.0 mph32.2 kmh 29.94 in1013.9 mb 0.00 in0.0 mm 0.00 in0.0 mm 0.00 in0.0 mm
06:05 AM 14.2°F-9.9°C 7.7°F-13.5°C 75% 9.0 mph ENE14.5 kmh ENE 26.0 mph41.8 kmh 29.94 in1013.9 mb 0.00 in0.0 mm 0.00 in0.0 mm 0.00 in0.0 mm
06:10 AM 14.2°F-9.9°C 7.7°F-13.5°C 75% 11.0 mph ENE17.7 kmh ENE 26.0 mph41.8 kmh 29.94 in1013.9 mb 0.00 in0.0 mm 0.00 in0.0 mm 0.00 in0.0 mm
06:15 AM 14.4°F-9.8°C 8.1°F-13.3°C 76% 10.0 mph ENE16.1 kmh ENE 19.0 mph30.6 kmh 29.94 in1013.9 mb 0.00 in0.0 mm 0.00 in0.0 mm 0.00 in0.0 mm
06:20 AM 14.2°F-9.9°C 8.1°F-13.3°C 76% 8.0 mph ENE12.9 kmh ENE 15.0 mph24.1 kmh 29.95 in1014.2 mb 0.00 in0.0 mm 0.00 in0.0 mm 0.00 in0.0 mm
06:25 AM 14.2°F-9.9°C 8.1°F-13.3°C 76% 8.0 mph ENE12.9 kmh ENE 16.0 mph25.7 kmh 29.94 in1013.9 mb 0.00 in0.0 mm 0.00 in0.0 mm 0.00 in0.0 mm
06:30 AM 14.2°F-9.9°C 8.1°F-13.3°C 76% 8.0 mph ENE12.9 kmh ENE 19.0 mph30.6 kmh 29.94 in1013.9 mb 0.00 in0.0 mm 0.00 in0.0 mm 0.00 in0.0 mm
06:35 AM 14.2°F-9.9°C 8.1°F-13.3°C 76% 9.0 mph ENE14.5 kmh ENE 20.0 mph32.2 kmh 29.95 in1014.2 mb 0.00 in0.0 mm 0.00 in0.0 mm 0.00 in0.0 mm
06:40 AM 14.4°F-9.8°C 8.1°F-13.3°C 76% 10.0 mph ENE16.1 kmh ENE 20.0 mph32.2 kmh 29.95 in1014.2 mb 0.00 in0.0 mm 0.00 in0.0 mm 0.00 in0.0 mm
06:45 AM 14.4°F-9.8°C 8.1°F-13.3°C 76% 10.0 mph ENE16.1 kmh ENE 20.0 mph32.2 kmh 29.94 in1013.9 mb 0.00 in0.0 mm 0.00 in0.0 mm 0.00 in0.0 mm
06:50 AM 14.4°F-9.8°C 8.2°F-13.2°C 76% 8.0 mph ENE12.9 kmh ENE 17.0 mph27.4 kmh 29.95 in1014.2 mb 0.00 in0.0 mm 0.00 in0.0 mm 0.00 in0.0 mm
06:55 AM 14.4°F-9.8°C 8.2°F-13.2°C 76% 8.0 mph ENE12.9 kmh ENE 18.0 mph29.0 kmh 29.95 in1014.2 mb 0.00 in0.0 mm 0.00 in0.0 mm 0.00 in0.0 mm
07:00 AM 14.5°F-9.7°C 8.2°F-13.2°C 76% 10.0 mph ENE16.1 kmh ENE 18.0 mph29.0 kmh 29.94 in1013.9 mb 0.00 in0.0 mm 0.00 in0.0 mm 0.00 in0.0 mm
07:05 AM 14.5°F-9.7°C 8.1°F-13.3°C 75% 11.0 mph ENE17.7 kmh ENE 23.0 mph37.0 kmh 29.95 in1014.2 mb 0.00 in0.0 mm 0.00 in0.0 mm 0.00 in0.0 mm
07:10 AM 14.7°F-9.6°C 8.4°F-13.1°C 76% 10.0 mph ENE16.1 kmh ENE 23.0 mph37.0 kmh 29.95 in1014.2 mb 0.00 in0.0 mm 0.00 in0.0 mm 0.00 in0.0 mm
07:15 AM 14.7°F-9.6°C 8.2°F-13.2°C 75% 11.0 mph ENE17.7 kmh ENE 20.0 mph32.2 kmh 29.95 in1014.2 mb 0.00 in0.0 mm 0.00 in0.0 mm 0.00 in0.0 mm
07:20 AM 15.1°F-9.4°C 8.6°F-13.0°C 75% 12.0 mph ENE19.3 kmh ENE 20.0 mph32.2 kmh 29.95 in1014.2 mb 0.00 in0.0 mm 0.00 in0.0 mm 0.00 in0.0 mm
07:25 AM 15.4°F-9.2°C 9.0°F-12.8°C 75% 10.0 mph ENE16.1 kmh ENE 19.0 mph30.6 kmh 29.95 in1014.2 mb 0.00 in0.0 mm 0.00 in0.0 mm 0.00 in0.0 mm
07:30 AM 15.6°F-9.1°C 9.1°F-12.7°C 75% 9.0 mph ENE14.5 kmh ENE 21.0 mph33.8 kmh 29.95 in1014.2 mb 0.00 in0.0 mm 0.00 in0.0 mm 0.00 in0.0 mm
07:35 AM 15.8°F-9.0°C 9.0°F-12.8°C 74% 10.0 mph NE16.1 kmh NE 22.0 mph35.4 kmh 29.95 in1014.2 mb 0.00 in0.0 mm 0.00 in0.0 mm 0.00 in0.0 mm
07:40 AM 15.8°F-9.0°C 8.6°F-13.0°C 73% 11.0 mph NE17.7 kmh NE 23.0 mph37.0 kmh 29.96 in1014.6 mb 0.00 in0.0 mm 0.00 in0.0 mm 0.00 in0.0 mm
07:45 AM 16.0°F-8.9°C 8.8°F-12.9°C 73% 11.0 mph ENE17.7 kmh ENE 23.0 mph37.0 kmh 29.96 in1014.6 mb 0.00 in0.0 mm 0.00 in0.0 mm 0.00 in0.0 mm
07:50 AM 16.2°F-8.8°C 9.1°F-12.7°C 73% 10.0 mph ENE16.1 kmh ENE 19.0 mph30.6 kmh 29.96 in1014.6 mb 0.00 in0.0 mm 0.00 in0.0 mm 0.00 in0.0 mm
07:55 AM 16.3°F-8.7°C 9.1°F-12.7°C 73% 9.0 mph ENE14.5 kmh ENE 19.0 mph30.6 kmh 29.97 in1014.9 mb 0.00 in0.0 mm 0.00 in0.0 mm 0.00 in0.0 mm
08:00 AM 16.2°F-8.8°C 8.8°F-12.9°C 72% 10.0 mph ENE16.1 kmh ENE 19.0 mph30.6 kmh 29.97 in1014.9 mb 0.00 in0.0 mm 0.00 in0.0 mm 0.00 in0.0 mm
08:05 AM 16.3°F-8.7°C 9.1°F-12.7°C 73% 11.0 mph ENE17.7 kmh ENE 19.0 mph30.6 kmh 29.97 in1014.9 mb 0.00 in0.0 mm 0.00 in0.0 mm 0.00 in0.0 mm
08:10 AM 16.3°F-8.7°C 8.8°F-12.9°C 72% 11.0 mph ENE17.7 kmh ENE 24.0 mph38.6 kmh 29.97 in1014.9 mb 0.00 in0.0 mm 0.00 in0.0 mm 0.00 in0.0 mm
08:15 AM 16.5°F-8.6°C 9.3°F-12.6°C 73% 11.0 mph ENE17.7 kmh ENE 24.0 mph38.6 kmh 29.97 in1014.9 mb 0.00 in0.0 mm 0.00 in0.0 mm 0.00 in0.0 mm
08:20 AM 16.7°F-8.5°C 9.5°F-12.5°C 73% 10.0 mph ENE16.1 kmh ENE 23.0 mph37.0 kmh 29.97 in1014.9 mb 0.00 in0.0 mm 0.00 in0.0 mm 0.00 in0.0 mm
08:25 AM 16.5°F-8.6°C 9.1°F-12.7°C 72% 11.0 mph ENE17.7 kmh ENE 22.0 mph35.4 kmh 29.97 in1014.9 mb 0.00 in0.0 mm 0.00 in0.0 mm 0.00 in0.0 mm
08:30 AM 16.9°F-8.4°C 9.7°F-12.4°C 73% 10.0 mph ENE16.1 kmh ENE 23.0 mph37.0 kmh 29.98 in1015.2 mb 0.00 in0.0 mm 0.00 in0.0 mm 0.00 in0.0 mm
08:35 AM 16.9°F-8.4°C 9.5°F-12.5°C 72% 10.0 mph ENE16.1 kmh ENE 23.0 mph37.0 kmh 29.98 in1015.2 mb 0.00 in0.0 mm 0.00 in0.0 mm 0.00 in0.0 mm
08:40 AM 17.1°F-8.3°C 9.7°F-12.4°C 72% 11.0 mph ENE17.7 kmh ENE 22.0 mph35.4 kmh 29.97 in1014.9 mb 0.00 in0.0 mm 0.00 in0.0 mm 0.00 in0.0 mm
08:45 AM 17.4°F-8.1°C 9.9°F-12.3°C 72% 8.0 mph ENE12.9 kmh ENE 19.0 mph30.6 kmh 29.98 in1015.2 mb 0.00 in0.0 mm 0.00 in0.0 mm 0.00 in0.0 mm
08:50 AM 17.4°F-8.1°C 9.7°F-12.4°C 71% 9.0 mph ENE14.5 kmh ENE 19.0 mph30.6 kmh 29.98 in1015.2 mb 0.00 in0.0 mm 0.00 in0.0 mm 0.00 in0.0 mm
08:55 AM 17.4°F-8.1°C 9.7°F-12.4°C 71% 11.0 mph ENE17.7 kmh ENE 19.0 mph30.6 kmh 29.98 in1015.2 mb 0.00 in0.0 mm 0.00 in0.0 mm 0.00 in0.0 mm
09:00 AM 18.1°F-7.7°C 10.6°F-11.9°C 72% 10.0 mph ENE16.1 kmh ENE 19.0 mph30.6 kmh 29.98 in1015.2 mb 0.00 in0.0 mm 0.00 in0.0 mm 0.00 in0.0 mm
09:05 AM 18.1°F-7.7°C 10.2°F-12.1°C 71% 9.0 mph ENE14.5 kmh ENE 22.0 mph35.4 kmh 29.98 in1015.2 mb 0.00 in0.0 mm 0.00 in0.0 mm 0.00 in0.0 mm
09:10 AM 18.1°F-7.7°C 10.0°F-12.2°C 70% 11.0 mph ENE17.7 kmh ENE 23.0 mph37.0 kmh 29.98 in1015.2 mb 0.00 in0.0 mm 0.00 in0.0 mm 0.00 in0.0 mm
09:15 AM 18.1°F-7.7°C 10.4°F-12.0°C 71% 11.0 mph ENE17.7 kmh ENE 23.0 mph37.0 kmh 29.98 in1015.2 mb 0.00 in0.0 mm 0.00 in0.0 mm 0.00 in0.0 mm
09:20 AM 18.5°F-7.5°C 10.6°F-11.9°C 71% 11.0 mph ENE17.7 kmh ENE 21.0 mph33.8 kmh 29.98 in1015.2 mb 0.00 in0.0 mm 0.00 in0.0 mm 0.00 in0.0 mm
09:25 AM 18.7°F-7.4°C 10.9°F-11.7°C 71% 10.0 mph ENE16.1 kmh ENE 18.0 mph29.0 kmh 29.97 in1014.9 mb 0.00 in0.0 mm 0.00 in0.0 mm 0.00 in0.0 mm
09:30 AM 18.9°F-7.3°C 10.8°F-11.8°C 70% 10.0 mph ENE16.1 kmh ENE 21.0 mph33.8 kmh 29.97 in1014.9 mb 0.00 in0.0 mm 0.00 in0.0 mm 0.00 in0.0 mm
09:35 AM 19.2°F-7.1°C 10.9°F-11.7°C 70% 10.0 mph ENE16.1 kmh ENE 21.0 mph33.8 kmh 29.97 in1014.9 mb 0.00 in0.0 mm 0.00 in0.0 mm 0.00 in0.0 mm
09:40 AM 19.6°F-6.9°C 10.9°F-11.7°C 69% 10.0 mph ENE16.1 kmh ENE 20.0 mph32.2 kmh 29.97 in1014.9 mb 0.00 in0.0 mm 0.00 in0.0 mm 0.00 in0.0 mm
09:45 AM 19.6°F-6.9°C 10.9°F-11.7°C 69% 10.0 mph ENE16.1 kmh ENE 21.0 mph33.8 kmh 29.97 in1014.9 mb 0.00 in0.0 mm 0.00 in0.0 mm 0.00 in0.0 mm
09:50 AM 19.2°F-7.1°C 10.4°F-12.0°C 68% 12.0 mph ENE19.3 kmh ENE 26.0 mph41.8 kmh 29.97 in1014.9 mb 0.00 in0.0 mm 0.00 in0.0 mm 0.00 in0.0 mm
09:55 AM 19.9°F-6.7°C 11.7°F-11.3°C 70% 12.0 mph ENE19.3 kmh ENE 26.0 mph41.8 kmh 29.97 in1014.9 mb 0.00 in0.0 mm 0.00 in0.0 mm 0.00 in0.0 mm
10:00 AM 20.1°F-6.6°C 11.3°F-11.5°C 68% 10.0 mph ENE16.1 kmh ENE 22.0 mph35.4 kmh 29.98 in1015.2 mb 0.00 in0.0 mm 0.00 in0.0 mm 0.00 in0.0 mm
10:05 AM 20.1°F-6.6°C 11.3°F-11.5°C 68% 11.0 mph ENE17.7 kmh ENE 22.0 mph35.4 kmh 29.97 in1014.9 mb 0.00 in0.0 mm 0.00 in0.0 mm 0.00 in0.0 mm
10:10 AM 20.5°F-6.4°C 11.5°F-11.4°C 68% 11.0 mph ENE17.7 kmh ENE 20.0 mph32.2 kmh 29.97 in1014.9 mb 0.00 in0.0 mm 0.00 in0.0 mm 0.00 in0.0 mm
10:15 AM 20.5°F-6.4°C 11.3°F-11.5°C 67% 11.0 mph ENE17.7 kmh ENE 21.0 mph33.8 kmh 29.98 in1015.2 mb 0.00 in0.0 mm 0.00 in0.0 mm 0.00 in0.0 mm
10:20 AM 20.5°F-6.4°C 11.3°F-11.5°C 67% 12.0 mph ENE19.3 kmh ENE 21.0 mph33.8 kmh 29.98 in1015.2 mb 0.00 in0.0 mm 0.00 in0.0 mm 0.00 in0.0 mm
10:25 AM 20.7°F-6.3°C 11.3°F-11.5°C 67% 12.0 mph ENE19.3 kmh ENE 21.0 mph33.8 kmh 29.98 in1015.2 mb 0.00 in0.0 mm 0.00 in0.0 mm 0.00 in0.0 mm
10:30 AM 20.8°F-6.2°C 11.7°F-11.3°C 67% 10.0 mph ENE16.1 kmh ENE 21.0 mph33.8 kmh 29.98 in1015.2 mb 0.00 in0.0 mm 0.00 in0.0 mm 0.00 in0.0 mm
10:35 AM 21.4°F-5.9°C 11.7°F-11.3°C 66% 10.0 mph ENE16.1 kmh ENE 21.0 mph33.8 kmh 29.98 in1015.2 mb 0.00 in0.0 mm 0.00 in0.0 mm 0.00 in0.0 mm
10:40 AM 21.4°F-5.9°C 11.3°F-11.5°C 65% 10.0 mph ENE16.1 kmh ENE 20.0 mph32.2 kmh 29.98 in1015.2 mb 0.00 in0.0 mm 0.00 in0.0 mm 0.00 in0.0 mm
10:45 AM 21.6°F-5.8°C 12.0°F-11.1°C 66% 10.0 mph ENE16.1 kmh ENE 21.0 mph33.8 kmh 29.98 in1015.2 mb 0.00 in0.0 mm 0.00 in0.0 mm 0.00 in0.0 mm
10:50 AM 21.7°F-5.7°C 11.7°F-11.3°C 65% 11.0 mph ENE17.7 kmh ENE 23.0 mph37.0 kmh 29.98 in1015.2 mb 0.00 in0.0 mm 0.00 in0.0 mm 0.00 in0.0 mm
10:55 AM 21.7°F-5.7°C 11.3°F-11.5°C 64% 11.0 mph ENE17.7 kmh ENE 23.0 mph37.0 kmh 29.98 in1015.2 mb 0.00 in0.0 mm 0.00 in0.0 mm 0.00 in0.0 mm
11:00 AM 21.9°F-5.6°C 11.7°F-11.3°C 64% 11.0 mph ENE17.7 kmh ENE 23.0 mph37.0 kmh 29.98 in1015.2 mb 0.00 in0.0 mm 0.00 in0.0 mm 0.00 in0.0 mm
11:05 AM 21.9°F-5.6°C 11.7°F-11.3°C 64% 12.0 mph ENE19.3 kmh ENE 23.0 mph37.0 kmh 29.98 in1015.2 mb 0.00 in0.0 mm 0.00 in0.0 mm 0.00 in0.0 mm
11:10 AM 22.1°F-5.5°C 11.8°F-11.2°C 64% 12.0 mph NE19.3 kmh NE 20.0 mph32.2 kmh 29.98 in1015.2 mb 0.00 in0.0 mm 0.00 in0.0 mm 0.00 in0.0 mm
11:15 AM 22.6°F-5.2°C 12.2°F-11.0°C 64% 10.0 mph NE16.1 kmh NE 19.0 mph30.6 kmh 29.98 in1015.2 mb 0.00 in0.0 mm 0.00 in0.0 mm 0.00 in0.0 mm
11:20 AM 22.6°F-5.2°C 12.2°F-11.0°C 64% 10.0 mph NE16.1 kmh NE 21.0 mph33.8 kmh 29.98 in1015.2 mb 0.00 in0.0 mm 0.00 in0.0 mm 0.00 in0.0 mm
11:25 AM 23.0°F-5.0°C 12.6°F-10.8°C 64% 11.0 mph NE17.7 kmh NE 21.0 mph33.8 kmh 29.98 in1015.2 mb 0.00 in0.0 mm 0.00 in0.0 mm 0.00 in0.0 mm
11:30 AM 23.2°F-4.9°C 12.0°F-11.1°C 62% 11.0 mph ENE17.7 kmh ENE 24.0 mph38.6 kmh 29.98 in1015.2 mb 0.00 in0.0 mm 0.00 in0.0 mm 0.00 in0.0 mm
11:35 AM 23.4°F-4.8°C 12.2°F-11.0°C 62% 12.0 mph ENE19.3 kmh ENE 24.0 mph38.6 kmh 29.98 in1015.2 mb 0.00 in0.0 mm 0.00 in0.0 mm 0.00 in0.0 mm
11:40 AM 23.2°F-4.9°C 12.0°F-11.1°C 62% 12.0 mph ENE19.3 kmh ENE 21.0 mph33.8 kmh 29.98 in1015.2 mb 0.00 in0.0 mm 0.00 in0.0 mm 0.00 in0.0 mm
11:45 AM 23.5°F-4.7°C 12.6°F-10.8°C 62% 12.0 mph ENE19.3 kmh ENE 21.0 mph33.8 kmh 29.98 in1015.2 mb 0.00 in0.0 mm 0.00 in0.0 mm 0.00 in0.0 mm
11:50 AM 23.7°F-4.6°C 12.7°F-10.7°C 62% 11.0 mph ENE17.7 kmh ENE 22.0 mph35.4 kmh 29.98 in1015.2 mb 0.00 in0.0 mm 0.00 in0.0 mm 0.00 in0.0 mm
11:55 AM 23.5°F-4.7°C 12.0°F-11.1°C 61% 12.0 mph ENE19.3 kmh ENE 22.0 mph35.4 kmh 29.98 in1015.2 mb 0.00 in0.0 mm 0.00 in0.0 mm 0.00 in0.0 mm
12:00 PM 24.1°F-4.4°C 12.6°F-10.8°C 61% 12.0 mph ENE19.3 kmh ENE 20.0 mph32.2 kmh 29.98 in1015.2 mb 0.00 in0.0 mm 0.00 in0.0 mm 0.00 in0.0 mm
12:05 PM 24.1°F-4.4°C 12.2°F-11.0°C 60% 11.0 mph ENE17.7 kmh ENE 27.0 mph43.5 kmh 29.98 in1015.2 mb 0.00 in0.0 mm 0.00 in0.0 mm 0.00 in0.0 mm
12:10 PM 24.1°F-4.4°C 12.2°F-11.0°C 60% 11.0 mph ENE17.7 kmh ENE 27.0 mph43.5 kmh 29.98 in1015.2 mb 0.00 in0.0 mm 0.00 in0.0 mm 0.00 in0.0 mm
12:15 PM 24.4°F-4.2°C 12.9°F-10.6°C 61% 10.0 mph ENE16.1 kmh ENE 20.0 mph32.2 kmh 29.98 in1015.2 mb 0.00 in0.0 mm 0.00 in0.0 mm 0.00 in0.0 mm
12:20 PM 24.4°F-4.2°C 12.6°F-10.8°C 60% 9.0 mph ENE14.5 kmh ENE 20.0 mph32.2 kmh 29.98 in1015.2 mb 0.00 in0.0 mm 0.00 in0.0 mm 0.00 in0.0 mm
12:25 PM 24.1°F-4.4°C 12.2°F-11.0°C 60% 11.0 mph ENE17.7 kmh ENE 23.0 mph37.0 kmh 29.98 in1015.2 mb 0.00 in0.0 mm 0.00 in0.0 mm 0.00 in0.0 mm
12:30 PM 24.1°F-4.4°C 12.2°F-11.0°C 60% 13.0 mph ENE20.9 kmh ENE 23.0 mph37.0 kmh 29.98 in1015.2 mb 0.00 in0.0 mm 0.00 in0.0 mm 0.00 in0.0 mm
12:35 PM 24.3°F-4.3°C 12.4°F-10.9°C 60% 12.0 mph ENE19.3 kmh ENE 23.0 mph37.0 kmh 29.98 in1015.2 mb 0.00 in0.0 mm 0.00 in0.0 mm 0.00 in0.0 mm
12:40 PM 24.4°F-4.2°C 12.6°F-10.8°C 60% 11.0 mph ENE17.7 kmh ENE 23.0 mph37.0 kmh 29.98 in1015.2 mb 0.00 in0.0 mm 0.00 in0.0 mm 0.00 in0.0 mm
12:45 PM 24.3°F-4.3°C 12.4°F-10.9°C 60% 12.0 mph ENE19.3 kmh ENE 26.0 mph41.8 kmh 29.98 in1015.2 mb 0.00 in0.0 mm 0.00 in0.0 mm 0.00 in0.0 mm
12:50 PM 24.6°F-4.1°C 12.7°F-10.7°C 60% 11.0 mph ENE17.7 kmh ENE 26.0 mph41.8 kmh 29.98 in1015.2 mb 0.00 in0.0 mm 0.00 in0.0 mm 0.00 in0.0 mm
12:55 PM 24.4°F-4.2°C 12.6°F-10.8°C 60% 10.0 mph ENE16.1 kmh ENE 20.0 mph32.2 kmh 29.99 in1015.6 mb 0.00 in0.0 mm 0.00 in0.0 mm 0.00 in0.0 mm
01:00 PM 24.1°F-4.4°C 11.8°F-11.2°C 59% 13.0 mph NE20.9 kmh NE 26.0 mph41.8 kmh 29.99 in1015.6 mb 0.00 in0.0 mm 0.00 in0.0 mm 0.00 in0.0 mm
01:05 PM 24.3°F-4.3°C 12.4°F-10.9°C 60% 14.0 mph ENE22.5 kmh ENE 26.0 mph41.8 kmh 29.99 in1015.6 mb 0.00 in0.0 mm 0.00 in0.0 mm 0.00 in0.0 mm
01:10 PM 24.3°F-4.3°C 12.4°F-10.9°C 60% 13.0 mph ENE20.9 kmh ENE 23.0 mph37.0 kmh 29.99 in1015.6 mb 0.00 in0.0 mm 0.00 in0.0 mm 0.00 in0.0 mm
01:15 PM 24.4°F-4.2°C 12.6°F-10.8°C 60% 12.0 mph ENE19.3 kmh ENE 23.0 mph37.0 kmh 29.99 in1015.6 mb 0.00 in0.0 mm 0.00 in0.0 mm 0.00 in0.0 mm
01:20 PM 24.4°F-4.2°C 12.6°F-10.8°C 60% 11.0 mph NE17.7 kmh NE 21.0 mph33.8 kmh 29.99 in1015.6 mb 0.00 in0.0 mm 0.00 in0.0 mm 0.00 in0.0 mm
01:25 PM 24.6°F-4.1°C 12.7°F-10.7°C 60% 11.0 mph ENE17.7 kmh ENE 23.0 mph37.0 kmh 29.98 in1015.2 mb 0.00 in0.0 mm 0.00 in0.0 mm 0.00 in0.0 mm
01:30 PM 24.6°F-4.1°C 13.1°F-10.5°C 61% 12.0 mph ENE19.3 kmh ENE 23.0 mph37.0 kmh 29.99 in1015.6 mb 0.00 in0.0 mm 0.00 in0.0 mm 0.00 in0.0 mm
01:35 PM 24.6°F-4.1°C 12.7°F-10.7°C 60% 12.0 mph ENE19.3 kmh ENE 22.0 mph35.4 kmh 29.99 in1015.6 mb 0.00 in0.0 mm 0.00 in0.0 mm 0.00 in0.0 mm
01:40 PM 24.6°F-4.1°C 12.7°F-10.7°C 60% 12.0 mph ENE19.3 kmh ENE 23.0 mph37.0 kmh 29.99 in1015.6 mb 0.00 in0.0 mm 0.00 in0.0 mm 0.00 in0.0 mm
01:45 PM 24.4°F-4.2°C 12.6°F-10.8°C 60% 11.0 mph ENE17.7 kmh ENE 23.0 mph37.0 kmh 29.99 in1015.6 mb 0.00 in0.0 mm 0.00 in0.0 mm 0.00 in0.0 mm
01:50 PM 24.6°F-4.1°C 12.7°F-10.7°C 60% 11.0 mph ENE17.7 kmh ENE 23.0 mph37.0 kmh 29.98 in1015.2 mb 0.00 in0.0 mm 0.00 in0.0 mm 0.00 in0.0 mm
01:55 PM 24.4°F-4.2°C 12.6°F-10.8°C 60% 12.0 mph NE19.3 kmh NE 23.0 mph37.0 kmh 29.99 in1015.6 mb 0.00 in0.0 mm 0.00 in0.0 mm 0.00 in0.0 mm
02:00 PM 24.8°F-4.0°C 12.9°F-10.6°C 60% 11.0 mph ENE17.7 kmh ENE 20.0 mph32.2 kmh 29.99 in1015.6 mb 0.00 in0.0 mm 0.00 in0.0 mm 0.00 in0.0 mm
02:05 PM 24.6°F-4.1°C 12.7°F-10.7°C 60% 11.0 mph ENE17.7 kmh ENE 20.0 mph32.2 kmh 29.99 in1015.6 mb 0.00 in0.0 mm 0.00 in0.0 mm 0.00 in0.0 mm
02:10 PM 24.8°F-4.0°C 12.9°F-10.6°C 60% 11.0 mph ENE17.7 kmh ENE 20.0 mph32.2 kmh 29.99 in1015.6 mb 0.00 in0.0 mm 0.00 in0.0 mm 0.00 in0.0 mm
02:15 PM 24.8°F-4.0°C 13.3°F-10.4°C 61% 11.0 mph NE17.7 kmh NE 25.0 mph40.2 kmh 29.98 in1015.2 mb 0.00 in0.0 mm 0.00 in0.0 mm 0.00 in0.0 mm
02:20 PM 24.6°F-4.1°C 13.1°F-10.5°C 61% 11.0 mph NE17.7 kmh NE 25.0 mph40.2 kmh 29.99 in1015.6 mb 0.00 in0.0 mm 0.00 in0.0 mm 0.00 in0.0 mm
02:25 PM 24.1°F-4.4°C 12.2°F-11.0°C 60% 12.0 mph NE19.3 kmh NE 23.0 mph37.0 kmh 29.99 in1015.6 mb 0.00 in0.0 mm 0.00 in0.0 mm 0.00 in0.0 mm
02:30 PM 24.1°F-4.4°C 12.6°F-10.8°C 61% 12.0 mph ENE19.3 kmh ENE 23.0 mph37.0 kmh 29.99 in1015.6 mb 0.00 in0.0 mm 0.00 in0.0 mm 0.00 in0.0 mm
02:35 PM 23.9°F-4.5°C 12.0°F-11.1°C 60% 12.0 mph ENE19.3 kmh ENE 25.0 mph40.2 kmh 29.98 in1015.2 mb 0.00 in0.0 mm 0.00 in0.0 mm 0.00 in0.0 mm
02:40 PM 23.9°F-4.5°C 12.0°F-11.1°C 60% 12.0 mph ENE19.3 kmh ENE 25.0 mph40.2 kmh 29.98 in1015.2 mb 0.00 in0.0 mm 0.00 in0.0 mm 0.00 in0.0 mm
02:45 PM 24.3°F-4.3°C 12.7°F-10.7°C 61% 10.0 mph ENE16.1 kmh ENE 19.0 mph30.6 kmh 29.99 in1015.6 mb 0.00 in0.0 mm 0.00 in0.0 mm 0.00 in0.0 mm
02:50 PM 24.1°F-4.4°C 12.2°F-11.0°C 60% 10.0 mph ENE16.1 kmh ENE 23.0 mph37.0 kmh 29.99 in1015.6 mb 0.00 in0.0 mm 0.00 in0.0 mm 0.00 in0.0 mm
02:55 PM 23.9°F-4.5°C 12.0°F-11.1°C 60% 12.0 mph ENE19.3 kmh ENE 25.0 mph40.2 kmh 29.99 in1015.6 mb 0.00 in0.0 mm 0.00 in0.0 mm 0.00 in0.0 mm
03:00 PM 23.7°F-4.6°C 11.8°F-11.2°C 60% 12.0 mph ENE19.3 kmh ENE 25.0 mph40.2 kmh 29.99 in1015.6 mb 0.00 in0.0 mm 0.00 in0.0 mm 0.00 in0.0 mm
03:05 PM 23.7°F-4.6°C 12.4°F-10.9°C 61% 11.0 mph ENE17.7 kmh ENE 21.0 mph33.8 kmh 29.99 in1015.6 mb 0.00 in0.0 mm 0.00 in0.0 mm 0.00 in0.0 mm
03:10 PM 23.9°F-4.5°C 12.4°F-10.9°C 61% 9.0 mph ENE14.5 kmh ENE 21.0 mph33.8 kmh 29.99 in1015.6 mb 0.00 in0.0 mm 0.00 in0.0 mm 0.00 in0.0 mm
03:15 PM 23.7°F-4.6°C 12.4°F-10.9°C 61% 9.0 mph ENE14.5 kmh ENE 18.0 mph29.0 kmh 29.98 in1015.2 mb 0.00 in0.0 mm 0.00 in0.0 mm 0.00 in0.0 mm
03:20 PM 23.7°F-4.6°C 12.2°F-11.0°C 61% 11.0 mph ENE17.7 kmh ENE 20.0 mph32.2 kmh 29.98 in1015.2 mb 0.00 in0.0 mm 0.00 in0.0 mm 0.00 in0.0 mm
03:25 PM 23.5°F-4.7°C 12.0°F-11.1°C 61% 10.0 mph ENE16.1 kmh ENE 24.0 mph38.6 kmh 29.98 in1015.2 mb 0.00 in0.0 mm 0.00 in0.0 mm 0.00 in0.0 mm
03:30 PM 23.5°F-4.7°C 11.7°F-11.3°C 60% 11.0 mph ENE17.7 kmh ENE 24.0 mph38.6 kmh 29.98 in1015.2 mb 0.00 in0.0 mm 0.00 in0.0 mm 0.00 in0.0 mm
03:35 PM 23.5°F-4.7°C 11.7°F-11.3°C 60% 12.0 mph ENE19.3 kmh ENE 23.0 mph37.0 kmh 29.98 in1015.2 mb 0.00 in0.0 mm 0.00 in0.0 mm 0.00 in0.0 mm
03:40 PM 23.5°F-4.7°C 11.7°F-11.3°C 60% 12.0 mph ENE19.3 kmh ENE 23.0 mph37.0 kmh 29.98 in1015.2 mb 0.00 in0.0 mm 0.00 in0.0 mm 0.00 in0.0 mm
03:45 PM 23.5°F-4.7°C 12.0°F-11.1°C 61% 11.0 mph ENE17.7 kmh ENE 21.0 mph33.8 kmh 29.98 in1015.2 mb 0.00 in0.0 mm 0.00 in0.0 mm 0.00 in0.0 mm
03:50 PM 23.5°F-4.7°C 11.7°F-11.3°C 60% 12.0 mph ENE19.3 kmh ENE 23.0 mph37.0 kmh 29.98 in1015.2 mb 0.00 in0.0 mm 0.00 in0.0 mm 0.00 in0.0 mm
03:55 PM 23.4°F-4.8°C 11.5°F-11.4°C 60% 11.0 mph ENE17.7 kmh ENE 23.0 mph37.0 kmh 29.98 in1015.2 mb 0.00 in0.0 mm 0.00 in0.0 mm 0.00 in0.0 mm
04:00 PM 23.4°F-4.8°C 11.5°F-11.4°C 60% 11.0 mph ENE17.7 kmh ENE 22.0 mph35.4 kmh 29.98 in1015.2 mb 0.00 in0.0 mm 0.00 in0.0 mm 0.00 in0.0 mm
04:05 PM 23.4°F-4.8°C 11.5°F-11.4°C 60% 11.0 mph ENE17.7 kmh ENE 22.0 mph35.4 kmh 29.98 in1015.2 mb 0.00 in0.0 mm 0.00 in0.0 mm 0.00 in0.0 mm
04:10 PM 23.2°F-4.9°C 11.3°F-11.5°C 60% 13.0 mph ENE20.9 kmh ENE 27.0 mph43.5 kmh 29.98 in1015.2 mb 0.00 in0.0 mm 0.00 in0.0 mm 0.00 in0.0 mm
04:15 PM 22.8°F-5.1°C 11.1°F-11.6°C 60% 14.0 mph ENE22.5 kmh ENE 27.0 mph43.5 kmh 29.98 in1015.2 mb 0.00 in0.0 mm 0.00 in0.0 mm 0.00 in0.0 mm
04:20 PM 22.8°F-5.1°C 11.5°F-11.4°C 61% 14.0 mph ENE22.5 kmh ENE 25.0 mph40.2 kmh 29.98 in1015.2 mb 0.00 in0.0 mm 0.00 in0.0 mm 0.00 in0.0 mm
04:25 PM 22.8°F-5.1°C 11.1°F-11.6°C 60% 12.0 mph ENE19.3 kmh ENE 23.0 mph37.0 kmh 29.98 in1015.2 mb 0.00 in0.0 mm 0.00 in0.0 mm 0.00 in0.0 mm
04:30 PM 22.8°F-5.1°C 11.5°F-11.4°C 61% 11.0 mph ENE17.7 kmh ENE 23.0 mph37.0 kmh 29.98 in1015.2 mb 0.00 in0.0 mm 0.00 in0.0 mm 0.00 in0.0 mm
04:35 PM 22.8°F-5.1°C 11.1°F-11.6°C 60% 11.0 mph ENE17.7 kmh ENE 20.0 mph32.2 kmh 29.98 in1015.2 mb 0.00 in0.0 mm 0.00 in0.0 mm 0.00 in0.0 mm
04:40 PM 22.8°F-5.1°C 11.1°F-11.6°C 60% 11.0 mph ENE17.7 kmh ENE 20.0 mph32.2 kmh 29.98 in1015.2 mb 0.00 in0.0 mm 0.00 in0.0 mm 0.00 in0.0 mm
04:45 PM 22.8°F-5.1°C 11.1°F-11.6°C 60% 10.0 mph ENE16.1 kmh ENE 20.0 mph32.2 kmh 29.98 in1015.2 mb 0.00 in0.0 mm 0.00 in0.0 mm 0.00 in0.0 mm
04:50 PM 22.8°F-5.1°C 11.5°F-11.4°C 61% 10.0 mph ENE16.1 kmh ENE 18.0 mph29.0 kmh 29.98 in1015.2 mb 0.00 in0.0 mm 0.00 in0.0 mm 0.00 in0.0 mm
04:55 PM 22.8°F-5.1°C 11.3°F-11.5°C 61% 10.0 mph ENE16.1 kmh ENE 21.0 mph33.8 kmh 29.98 in1015.2 mb 0.00 in0.0 mm 0.00 in0.0 mm 0.00 in0.0 mm
05:00 PM 22.8°F-5.1°C 11.3°F-11.5°C 61% 10.0 mph ENE16.1 kmh ENE 21.0 mph33.8 kmh 29.98 in1015.2 mb 0.00 in0.0 mm 0.00 in0.0 mm 0.00 in0.0 mm
05:05 PM 22.6°F-5.2°C 11.3°F-11.5°C 61% 11.0 mph ENE17.7 kmh ENE 20.0 mph32.2 kmh 29.98 in1015.2 mb 0.00 in0.0 mm 0.00 in0.0 mm 0.00 in0.0 mm
05:10 PM 22.6°F-5.2°C 10.8°F-11.8°C 60% 12.0 mph ENE19.3 kmh ENE 20.0 mph32.2 kmh 29.98 in1015.2 mb 0.00 in0.0 mm 0.00 in0.0 mm 0.00 in0.0 mm
05:15 PM 22.5°F-5.3°C 11.1°F-11.6°C 61% 10.0 mph ENE16.1 kmh ENE 19.0 mph30.6 kmh 29.98 in1015.2 mb 0.00 in0.0 mm 0.00 in0.0 mm 0.00 in0.0 mm
05:20 PM 22.5°F-5.3°C 10.8°F-11.8°C 60% 11.0 mph ENE17.7 kmh ENE 25.0 mph40.2 kmh 29.98 in1015.2 mb 0.00 in0.0 mm 0.00 in0.0 mm 0.00 in0.0 mm
05:25 PM 22.5°F-5.3°C 11.1°F-11.6°C 61% 11.0 mph ENE17.7 kmh ENE 25.0 mph40.2 kmh 29.98 in1015.2 mb 0.00 in0.0 mm 0.00 in0.0 mm 0.00 in0.0 mm
05:30 PM 22.5°F-5.3°C 10.9°F-11.7°C 61% 10.0 mph ENE16.1 kmh ENE 18.0 mph29.0 kmh 29.98 in1015.2 mb 0.00 in0.0 mm 0.00 in0.0 mm 0.00 in0.0 mm
05:35 PM 22.5°F-5.3°C 11.3°F-11.5°C 62% 9.0 mph ENE14.5 kmh ENE 21.0 mph33.8 kmh 29.98 in1015.2 mb 0.00 in0.0 mm 0.00 in0.0 mm 0.00 in0.0 mm
05:40 PM 22.3°F-5.4°C 10.9°F-11.7°C 61% 10.0 mph ENE16.1 kmh ENE 21.0 mph33.8 kmh 29.98 in1015.2 mb 0.00 in0.0 mm 0.00 in0.0 mm 0.00 in0.0 mm
05:45 PM 22.3°F-5.4°C 10.9°F-11.7°C 61% 12.0 mph ENE19.3 kmh ENE 19.0 mph30.6 kmh 29.98 in1015.2 mb 0.00 in0.0 mm 0.00 in0.0 mm 0.00 in0.0 mm
05:50 PM 22.3°F-5.4°C 10.9°F-11.7°C 61% 10.0 mph ENE16.1 kmh ENE 17.0 mph27.4 kmh 29.98 in1015.2 mb 0.00 in0.0 mm 0.00 in0.0 mm 0.00 in0.0 mm
05:55 PM 22.3°F-5.4°C 10.8°F-11.8°C 61% 8.0 mph ENE12.9 kmh ENE 15.0 mph24.1 kmh 29.98 in1015.2 mb 0.00 in0.0 mm 0.00 in0.0 mm 0.00 in0.0 mm
06:00 PM 22.1°F-5.5°C 10.8°F-11.8°C 61% 7.0 mph ENE11.3 kmh ENE 14.0 mph22.5 kmh 29.98 in1015.2 mb 0.00 in0.0 mm 0.00 in0.0 mm 0.00 in0.0 mm
06:05 PM 22.1°F-5.5°C 10.8°F-11.8°C 61% 8.0 mph ENE12.9 kmh ENE 15.0 mph24.1 kmh 29.98 in1015.2 mb 0.00 in0.0 mm 0.00 in0.0 mm 0.00 in0.0 mm
06:10 PM 22.1°F-5.5°C 10.8°F-11.8°C 61% 8.0 mph ENE12.9 kmh ENE 16.0 mph25.7 kmh 29.99 in1015.6 mb 0.00 in0.0 mm 0.00 in0.0 mm 0.00 in0.0 mm
06:15 PM 21.9°F-5.6°C 10.6°F-11.9°C 61% 10.0 mph ENE16.1 kmh ENE 18.0 mph29.0 kmh 29.98 in1015.2 mb 0.00 in0.0 mm 0.00 in0.0 mm 0.00 in0.0 mm
06:20 PM 21.9°F-5.6°C 10.2°F-12.1°C 60% 11.0 mph ENE17.7 kmh ENE 18.0 mph29.0 kmh 29.99 in1015.6 mb 0.00 in0.0 mm 0.00 in0.0 mm 0.00 in0.0 mm
06:25 PM 21.9°F-5.6°C 10.2°F-12.1°C 60% 10.0 mph ENE16.1 kmh ENE 19.0 mph30.6 kmh 29.99 in1015.6 mb 0.00 in0.0 mm 0.00 in0.0 mm 0.00 in0.0 mm
06:30 PM 21.9°F-5.6°C 10.6°F-11.9°C 61% 9.0 mph ENE14.5 kmh ENE 19.0 mph30.6 kmh 29.99 in1015.6 mb 0.00 in0.0 mm 0.00 in0.0 mm 0.00 in0.0 mm
06:35 PM 21.9°F-5.6°C 10.6°F-11.9°C 61% 9.0 mph ENE14.5 kmh ENE 19.0 mph30.6 kmh 29.99 in1015.6 mb 0.00 in0.0 mm 0.00 in0.0 mm 0.00 in0.0 mm
06:40 PM 21.9°F-5.6°C 10.6°F-11.9°C 61% 8.0 mph ENE12.9 kmh ENE 17.0 mph27.4 kmh 29.99 in1015.6 mb 0.00 in0.0 mm 0.00 in0.0 mm 0.00 in0.0 mm
06:45 PM 21.9°F-5.6°C 10.0°F-12.2°C 60% 9.0 mph ENE14.5 kmh ENE 17.0 mph27.4 kmh 29.99 in1015.6 mb 0.00 in0.0 mm 0.00 in0.0 mm 0.00 in0.0 mm
06:50 PM 21.9°F-5.6°C 10.0°F-12.2°C 60% 10.0 mph ENE16.1 kmh ENE 19.0 mph30.6 kmh 29.99 in1015.6 mb 0.00 in0.0 mm 0.00 in0.0 mm 0.00 in0.0 mm
06:55 PM 21.9°F-5.6°C 10.6°F-11.9°C 61% 9.0 mph ENE14.5 kmh ENE 19.0 mph30.6 kmh 29.99 in1015.6 mb 0.00 in0.0 mm 0.00 in0.0 mm 0.00 in0.0 mm
07:00 PM 21.9°F-5.6°C 10.0°F-12.2°C 60% 9.0 mph ENE14.5 kmh ENE 19.0 mph30.6 kmh 29.99 in1015.6 mb 0.00 in0.0 mm 0.00 in0.0 mm 0.00 in0.0 mm
07:05 PM 21.9°F-5.6°C 10.0°F-12.2°C 60% 10.0 mph ENE16.1 kmh ENE 20.0 mph32.2 kmh 29.99 in1015.6 mb 0.00 in0.0 mm 0.00 in0.0 mm 0.00 in0.0 mm
07:10 PM 21.9°F-5.6°C 10.0°F-12.2°C 60% 10.0 mph ENE16.1 kmh ENE 20.0 mph32.2 kmh 29.99 in1015.6 mb 0.00 in0.0 mm 0.00 in0.0 mm 0.00 in0.0 mm
07:15 PM 21.9°F-5.6°C 10.6°F-11.9°C 61% 10.0 mph ENE16.1 kmh ENE 21.0 mph33.8 kmh 29.99 in1015.6 mb 0.00 in0.0 mm 0.00 in0.0 mm 0.00 in0.0 mm
07:20 PM 21.7°F-5.7°C 10.0°F-12.2°C 60% 10.0 mph ENE16.1 kmh ENE 21.0 mph33.8 kmh 29.99 in1015.6 mb 0.00 in0.0 mm 0.00 in0.0 mm 0.00 in0.0 mm
07:25 PM 21.7°F-5.7°C 10.4°F-12.0°C 61% 10.0 mph ENE16.1 kmh ENE 19.0 mph30.6 kmh 29.99 in1015.6 mb 0.00 in0.0 mm 0.00 in0.0 mm 0.00 in0.0 mm
07:30 PM 21.7°F-5.7°C 10.4°F-12.0°C 61% 9.0 mph ENE14.5 kmh ENE 19.0 mph30.6 kmh 29.99 in1015.6 mb 0.00 in0.0 mm 0.00 in0.0 mm 0.00 in0.0 mm
07:35 PM 21.7°F-5.7°C 10.4°F-12.0°C 61% 10.0 mph ENE16.1 kmh ENE 21.0 mph33.8 kmh 29.99 in1015.6 mb 0.00 in0.0 mm 0.00 in0.0 mm 0.00 in0.0 mm
07:40 PM 21.7°F-5.7°C 10.2°F-12.1°C 61% 10.0 mph ENE16.1 kmh ENE 21.0 mph33.8 kmh 30.00 in1015.9 mb 0.00 in0.0 mm 0.00 in0.0 mm 0.00 in0.0 mm
07:45 PM 21.7°F-5.7°C 10.8°F-11.8°C 62% 11.0 mph ENE17.7 kmh ENE 24.0 mph38.6 kmh 30.00 in1015.9 mb 0.00 in0.0 mm 0.00 in0.0 mm 0.00 in0.0 mm
07:50 PM 21.7°F-5.7°C 10.8°F-11.8°C 62% 11.0 mph ENE17.7 kmh ENE 24.0 mph38.6 kmh 30.00 in1015.9 mb 0.00 in0.0 mm 0.00 in0.0 mm 0.00 in0.0 mm
07:55 PM 21.6°F-5.8°C 10.9°F-11.7°C 63% 9.0 mph ENE14.5 kmh ENE 17.0 mph27.4 kmh 30.00 in1015.9 mb 0.00 in0.0 mm 0.00 in0.0 mm 0.00 in0.0 mm
08:00 PM 21.6°F-5.8°C 10.9°F-11.7°C 63% 8.0 mph ENE12.9 kmh ENE 18.0 mph29.0 kmh 30.00 in1015.9 mb 0.00 in0.0 mm 0.00 in0.0 mm 0.00 in0.0 mm
08:05 PM 21.6°F-5.8°C 10.8°F-11.8°C 63% 9.0 mph ENE14.5 kmh ENE 18.0 mph29.0 kmh 30.00 in1015.9 mb 0.00 in0.0 mm 0.00 in0.0 mm 0.00 in0.0 mm
08:10 PM 21.6°F-5.8°C 11.1°F-11.6°C 64% 10.0 mph ENE16.1 kmh ENE 17.0 mph27.4 kmh 30.00 in1015.9 mb 0.00 in0.0 mm 0.00 in0.0 mm 0.00 in0.0 mm
08:15 PM 21.6°F-5.8°C 11.5°F-11.4°C 65% 9.0 mph ENE14.5 kmh ENE 19.0 mph30.6 kmh 30.00 in1015.9 mb 0.00 in0.0 mm 0.00 in0.0 mm 0.00 in0.0 mm
08:20 PM 21.6°F-5.8°C 11.5°F-11.4°C 65% 9.0 mph ENE14.5 kmh ENE 19.0 mph30.6 kmh 30.00 in1015.9 mb 0.00 in0.0 mm 0.00 in0.0 mm 0.00 in0.0 mm
08:25 PM 21.6°F-5.8°C 11.8°F-11.2°C 66% 10.0 mph ENE16.1 kmh ENE 20.0 mph32.2 kmh 30.00 in1015.9 mb 0.00 in0.0 mm 0.00 in0.0 mm 0.00 in0.0 mm
08:30 PM 21.6°F-5.8°C 12.2°F-11.0°C 67% 11.0 mph ENE17.7 kmh ENE 20.0 mph32.2 kmh 30.00 in1015.9 mb 0.00 in0.0 mm 0.00 in0.0 mm 0.00 in0.0 mm
08:35 PM 21.4°F-5.9°C 12.6°F-10.8°C 68% 10.0 mph ENE16.1 kmh ENE 19.0 mph30.6 kmh 30.01 in1016.3 mb 0.00 in0.0 mm 0.00 in0.0 mm 0.00 in0.0 mm
08:40 PM 21.4°F-5.9°C 12.4°F-10.9°C 68% 7.0 mph ENE11.3 kmh ENE 19.0 mph30.6 kmh 30.01 in1016.3 mb 0.00 in0.0 mm 0.00 in0.0 mm 0.00 in0.0 mm
08:45 PM 21.4°F-5.9°C 12.4°F-10.9°C 68% 6.0 mph ENE9.7 kmh ENE 16.0 mph25.7 kmh 30.00 in1015.9 mb 0.00 in0.0 mm 0.00 in0.0 mm 0.00 in0.0 mm
08:50 PM 21.2°F-6.0°C 12.2°F-11.0°C 68% 9.0 mph ENE14.5 kmh ENE 17.0 mph27.4 kmh 30.00 in1015.9 mb 0.00 in0.0 mm 0.00 in0.0 mm 0.00 in0.0 mm
08:55 PM 21.2°F-6.0°C 12.6°F-10.8°C 69% 9.0 mph ENE14.5 kmh ENE 19.0 mph30.6 kmh 30.00 in1015.9 mb 0.00 in0.0 mm 0.00 in0.0 mm 0.00 in0.0 mm
09:00 PM 21.0°F-6.1°C 12.9°F-10.6°C 70% 9.0 mph ENE14.5 kmh ENE 19.0 mph30.6 kmh 30.00 in1015.9 mb 0.00 in0.0 mm 0.00 in0.0 mm 0.00 in0.0 mm
09:05 PM 21.0°F-6.1°C 12.7°F-10.7°C 70% 10.0 mph ENE16.1 kmh ENE 19.0 mph30.6 kmh 30.00 in1015.9 mb 0.00 in0.0 mm 0.00 in0.0 mm 0.00 in0.0 mm
09:10 PM 21.0°F-6.1°C 13.1°F-10.5°C 71% 9.0 mph ENE14.5 kmh ENE 18.0 mph29.0 kmh 30.00 in1015.9 mb 0.00 in0.0 mm 0.00 in0.0 mm 0.00 in0.0 mm
09:15 PM 20.8°F-6.2°C 13.3°F-10.4°C 72% 7.0 mph ENE11.3 kmh ENE 16.0 mph25.7 kmh 30.00 in1015.9 mb 0.00 in0.0 mm 0.00 in0.0 mm 0.00 in0.0 mm
09:20 PM 20.7°F-6.3°C 13.5°F-10.3°C 73% 7.0 mph ENE11.3 kmh ENE 16.0 mph25.7 kmh 30.00 in1015.9 mb 0.00 in0.0 mm 0.00 in0.0 mm 0.00 in0.0 mm
09:25 PM 20.7°F-6.3°C 13.3°F-10.4°C 73% 8.0 mph ENE12.9 kmh ENE 16.0 mph25.7 kmh 30.00 in1015.9 mb 0.00 in0.0 mm 0.00 in0.0 mm 0.00 in0.0 mm
09:30 PM 20.7°F-6.3°C 13.3°F-10.4°C 73% 9.0 mph ENE14.5 kmh ENE 20.0 mph32.2 kmh 30.00 in1015.9 mb 0.00 in0.0 mm 0.00 in0.0 mm 0.00 in0.0 mm
09:35 PM 20.5°F-6.4°C 13.3°F-10.4°C 73% 10.0 mph ENE16.1 kmh ENE 20.0 mph32.2 kmh 30.00 in1015.9 mb 0.00 in0.0 mm 0.00 in0.0 mm 0.00 in0.0 mm
09:40 PM 20.5°F-6.4°C 13.3°F-10.4°C 73% 9.0 mph ENE14.5 kmh ENE 18.0 mph29.0 kmh 30.00 in1015.9 mb 0.00 in0.0 mm 0.00 in0.0 mm 0.00 in0.0 mm
09:45 PM 20.5°F-6.4°C 13.5°F-10.3°C 74% 9.0 mph ENE14.5 kmh ENE 19.0 mph30.6 kmh 30.00 in1015.9 mb 0.00 in0.0 mm 0.00 in0.0 mm 0.00 in0.0 mm
09:50 PM 20.3°F-6.5°C 13.6°F-10.2°C 75% 7.0 mph ENE11.3 kmh ENE 19.0 mph30.6 kmh 30.00 in1015.9 mb 0.00 in0.0 mm 0.00 in0.0 mm 0.00 in0.0 mm
09:55 PM 20.1°F-6.6°C 13.5°F-10.3°C 75% 7.0 mph ENE11.3 kmh ENE 14.0 mph22.5 kmh 30.00 in1015.9 mb 0.00 in0.0 mm 0.00 in0.0 mm 0.00 in0.0 mm
10:00 PM 20.1°F-6.6°C 14.0°F-10.0°C 77% 8.0 mph ENE12.9 kmh ENE 18.0 mph29.0 kmh 30.00 in1015.9 mb 0.00 in0.0 mm 0.00 in0.0 mm 0.00 in0.0 mm
10:05 PM 19.9°F-6.7°C 14.2°F-9.9°C 78% 8.0 mph ENE12.9 kmh ENE 18.0 mph29.0 kmh 30.00 in1015.9 mb 0.00 in0.0 mm 0.00 in0.0 mm 0.00 in0.0 mm
10:10 PM 19.8°F-6.8°C 14.4°F-9.8°C 79% 7.0 mph ENE11.3 kmh ENE 16.0 mph25.7 kmh 30.00 in1015.9 mb 0.00 in0.0 mm 0.00 in0.0 mm 0.00 in0.0 mm
10:15 PM 19.8°F-6.8°C 14.5°F-9.7°C 80% 7.0 mph ENE11.3 kmh ENE 16.0 mph25.7 kmh 30.00 in1015.9 mb 0.00 in0.0 mm 0.00 in0.0 mm 0.00 in0.0 mm
10:20 PM 19.6°F-6.9°C 14.4°F-9.8°C 80% 6.0 mph ENE9.7 kmh ENE 14.0 mph22.5 kmh 30.00 in1015.9 mb 0.00 in0.0 mm 0.00 in0.0 mm 0.00 in0.0 mm
10:25 PM 19.6°F-6.9°C 14.7°F-9.6°C 81% 5.0 mph ENE8.0 kmh ENE 12.0 mph19.3 kmh 29.99 in1015.6 mb 0.00 in0.0 mm 0.00 in0.0 mm 0.00 in0.0 mm
10:30 PM 19.6°F-6.9°C 14.5°F-9.7°C 81% 5.0 mph ENE8.0 kmh ENE 12.0 mph19.3 kmh 29.99 in1015.6 mb 0.00 in0.0 mm 0.00 in0.0 mm 0.00 in0.0 mm
10:35 PM 19.6°F-6.9°C 14.9°F-9.5°C 82% 5.0 mph ENE8.0 kmh ENE 13.0 mph20.9 kmh 29.99 in1015.6 mb 0.00 in0.0 mm 0.00 in0.0 mm 0.00 in0.0 mm
10:40 PM 19.4°F-7.0°C 14.7°F-9.6°C 82% 5.0 mph ENE8.0 kmh ENE 14.0 mph22.5 kmh 29.99 in1015.6 mb 0.00 in0.0 mm 0.00 in0.0 mm 0.00 in0.0 mm
10:45 PM 19.6°F-6.9°C 14.9°F-9.5°C 82% 6.0 mph ENE9.7 kmh ENE 14.0 mph22.5 kmh 29.99 in1015.6 mb 0.00 in0.0 mm 0.00 in0.0 mm 0.00 in0.0 mm
10:50 PM 19.6°F-6.9°C 14.9°F-9.5°C 82% 7.0 mph ENE11.3 kmh ENE 13.0 mph20.9 kmh 29.99 in1015.6 mb 0.00 in0.0 mm 0.00 in0.0 mm 0.00 in0.0 mm
10:55 PM 19.4°F-7.0°C 14.7°F-9.6°C 82% 6.0 mph ENE9.7 kmh ENE 12.0 mph19.3 kmh 29.99 in1015.6 mb 0.00 in0.0 mm 0.00 in0.0 mm 0.00 in0.0 mm
11:00 PM 19.4°F-7.0°C 15.1°F-9.4°C 83% 5.0 mph ENE8.0 kmh ENE 12.0 mph19.3 kmh 29.99 in1015.6 mb 0.00 in0.0 mm 0.00 in0.0 mm 0.00 in0.0 mm
11:05 PM 19.4°F-7.0°C 15.1°F-9.4°C 83% 5.0 mph ENE8.0 kmh ENE 12.0 mph19.3 kmh 29.98 in1015.2 mb 0.00 in0.0 mm 0.00 in0.0 mm 0.00 in0.0 mm
11:10 PM 19.4°F-7.0°C 15.1°F-9.4°C 83% 5.0 mph ENE8.0 kmh ENE 14.0 mph22.5 kmh 29.98 in1015.2 mb 0.00 in0.0 mm 0.00 in0.0 mm 0.00 in0.0 mm
11:15 PM 19.4°F-7.0°C 15.1°F-9.4°C 83% 5.0 mph ENE8.0 kmh ENE 14.0 mph22.5 kmh 29.98 in1015.2 mb 0.00 in0.0 mm 0.00 in0.0 mm 0.00 in0.0 mm
11:20 PM 19.4°F-7.0°C 15.1°F-9.4°C 83% 6.0 mph ENE9.7 kmh ENE 15.0 mph24.1 kmh 29.98 in1015.2 mb 0.00 in0.0 mm 0.00 in0.0 mm 0.00 in0.0 mm
11:25 PM 19.4°F-7.0°C 15.1°F-9.4°C 83% 6.0 mph ENE9.7 kmh ENE 15.0 mph24.1 kmh 29.98 in1015.2 mb 0.00 in0.0 mm 0.00 in0.0 mm 0.00 in0.0 mm
11:30 PM 19.2°F-7.1°C 14.9°F-9.5°C 83% 6.0 mph ENE9.7 kmh ENE 14.0 mph22.5 kmh 29.97 in1014.9 mb 0.00 in0.0 mm 0.00 in0.0 mm 0.00 in0.0 mm
11:35 PM 19.4°F-7.0°C 15.1°F-9.4°C 83% 7.0 mph ENE11.3 kmh ENE 15.0 mph24.1 kmh 29.98 in1015.2 mb 0.00 in0.0 mm 0.00 in0.0 mm 0.00 in0.0 mm
11:40 PM 19.4°F-7.0°C 14.7°F-9.6°C 82% 7.0 mph ENE11.3 kmh ENE 15.0 mph24.1 kmh 29.98 in1015.2 mb 0.00 in0.0 mm 0.00 in0.0 mm 0.00 in0.0 mm
11:45 PM 19.2°F-7.1°C 14.7°F-9.6°C 82% 6.0 mph ENE9.7 kmh ENE 15.0 mph24.1 kmh 29.97 in1014.9 mb 0.00 in0.0 mm 0.00 in0.0 mm 0.00 in0.0 mm
11:50 PM 19.2°F-7.1°C 14.7°F-9.6°C 82% 7.0 mph ENE11.3 kmh ENE 15.0 mph24.1 kmh 29.97 in1014.9 mb 0.00 in0.0 mm 0.00 in0.0 mm 0.00 in0.0 mm
11:55 PM 19.2°F-7.1°C 14.7°F-9.6°C 82% 6.0 mph ENE9.7 kmh ENE 14.0 mph22.5 kmh 29.97 in1014.9 mb 0.00 in0.0 mm 0.00 in0.0 mm 0.00 in0.0 mm